Time;durP1;ratioP1;P1;durP2;ratioP2;P2;SDS_P1;SDS_P2;PMS_P1;PMS_P2;Temp;Humidity;BMP_temperature;BMP_pressure;BME280_temperature;BME280_humidity;BME280_pressure;Samples;Min_cycle;Max_cycle;Signal;HPM_P1;HPM_P2
2022/04/09 00:00:30;;;;;;;4.53;2.10;;;3.60;99.90;;;;;;4998742;28;94479;-32
2022/04/09 00:02:55;;;;;;;4.45;2.88;;;3.70;99.90;;;;;;4997922;28;95203;-35
2022/04/09 00:05:21;;;;;;;7.65;2.47;;;3.60;99.90;;;;;;4998223;28;94283;-36
2022/04/09 00:07:46;;;;;;;6.63;3.28;;;3.60;99.90;;;;;;4981079;28;94345;-35
2022/04/09 00:10:12;;;;;;;11.20;2.58;;;3.70;99.90;;;;;;4998447;28;93494;-35
2022/04/09 00:12:38;;;;;;;9.38;2.35;;;3.70;99.90;;;;;;4998721;28;94961;-37
2022/04/09 00:15:06;;;;;;;8.02;3.03;;;3.80;99.90;;;;;;4998848;28;94415;-34
2022/04/09 00:17:39;;;;;;;5.20;2.65;;;3.90;99.90;;;;;;4998368;28;94305;-37
2022/04/09 00:20:06;;;;;;;5.95;2.88;;;3.90;99.90;;;;;;4998664;28;93178;-35
2022/04/09 00:22:31;;;;;;;9.65;3.15;;;3.90;99.90;;;;;;4997662;28;96202;-33
2022/04/09 00:24:57;;;;;;;7.68;3.05;;;3.90;99.90;;;;;;5047746;22;95089;-33
2022/04/09 00:27:23;;;;;;;8.27;2.53;;;3.80;99.90;;;;;;4998276;28;92152;-33
2022/04/09 00:29:49;;;;;;;9.88;3.72;;;3.90;99.90;;;;;;4997974;28;94192;-33
2022/04/09 00:32:14;;;;;;;11.43;3.25;;;4.00;99.90;;;;;;4998055;28;94622;-35
2022/04/09 00:34:40;;;;;;;9.82;3.10;;;4.00;99.90;;;;;;4997721;28;94531;-35
2022/04/09 00:37:06;;;;;;;6.80;3.00;;;4.00;99.90;;;;;;4998084;28;94752;-32
2022/04/09 00:39:31;;;;;;;6.20;2.67;;;3.90;99.90;;;;;;4998302;28;92692;-33
2022/04/09 00:41:57;;;;;;;9.70;3.33;;;3.90;99.90;;;;;;4997897;28;93985;-34
2022/04/09 00:44:23;;;;;;;10.32;3.25;;;3.90;99.90;;;;;;4997855;28;94698;-36
2022/04/09 00:46:48;;;;;;;9.95;3.35;;;3.80;99.90;;;;;;4979763;28;94690;-35
2022/04/09 00:49:15;;;;;;;7.50;3.03;;;3.90;99.90;;;;;;4998136;28;92217;-31
2022/04/09 00:51:43;;;;;;;7.45;2.80;;;3.90;99.90;;;;;;4997156;28;94744;-36
2022/04/09 00:54:12;;;;;;;8.02;3.40;;;3.80;99.90;;;;;;4997456;28;94604;-38
2022/04/09 00:56:39;;;;;;;6.90;2.55;;;3.70;99.90;;;;;;4998330;28;93586;-34
2022/04/09 00:59:07;;;;;;;7.53;2.88;;;3.70;99.90;;;;;;4998928;28;92995;-36
2022/04/09 01:01:36;;;;;;;6.63;2.50;;;3.70;99.90;;;;;;4997927;28;94698;-35
2022/04/09 01:04:10;;;;;;;7.07;2.70;;;3.70;99.90;;;;;;4998004;28;94287;-35
2022/04/09 01:06:37;;;;;;;8.07;2.92;;;3.60;99.90;;;;;;4997784;28;94475;-33
2022/04/09 01:09:05;;;;;;;7.65;2.95;;;3.60;99.90;;;;;;4997930;28;92462;-34
2022/04/09 01:11:31;;;;;;;7.80;2.83;;;3.60;99.90;;;;;;4997447;28;96325;-36
2022/04/09 01:13:57;;;;;;;5.43;2.75;;;3.70;99.90;;;;;;4997275;28;95372;-32
2022/04/09 01:16:24;;;;;;;4.03;2.60;;;3.70;99.90;;;;;;4997974;28;92273;-34
2022/04/09 01:18:50;;;;;;;8.30;2.78;;;3.70;99.90;;;;;;4997410;28;94086;-34
2022/04/09 01:21:15;;;;;;;9.35;3.00;;;3.70;99.90;;;;;;4997099;28;94463;-33
2022/04/09 01:23:41;;;;;;;5.05;2.15;;;3.80;99.90;;;;;;4997553;28;94613;-32
2022/04/09 01:26:07;;;;;;;6.05;2.25;;;3.90;99.90;;;;;;4996662;28;93098;-35
2022/04/09 01:28:33;;;;;;;7.78;2.70;;;3.90;99.90;;;;;;4997865;28;91901;-32
2022/04/09 01:30:59;;;;;;;5.35;2.25;;;4.00;99.90;;;;;;4996410;28;94378;-35
2022/04/09 01:33:25;;;;;;;6.00;2.85;;;4.00;99.90;;;;;;4997304;28;94589;-32
2022/04/09 01:35:51;;;;;;;9.13;2.58;;;3.90;99.90;;;;;;4997232;28;95528;-35
2022/04/09 01:38:17;;;;;;;4.82;2.45;;;3.90;99.90;;;;;;4997191;28;92298;-34
2022/04/09 01:40:43;;;;;;;5.47;2.28;;;3.90;99.90;;;;;;4996809;28;94626;-36
2022/04/09 01:43:09;;;;;;;4.40;2.28;;;3.70;99.90;;;;;;4997400;28;94153;-33
2022/04/09 01:45:35;;;;;;;3.20;2.17;;;3.60;99.90;;;;;;4997002;28;94215;-34
2022/04/09 01:48:01;;;;;;;6.78;2.47;;;3.60;99.90;;;;;;4997681;28;94611;-33
2022/04/09 01:50:27;;;;;;;11.25;2.67;;;3.60;99.90;;;;;;4996647;28;95063;-34
2022/04/09 01:52:53;;;;;;;5.90;2.15;;;3.60;99.90;;;;;;4997427;28;94571;-36
2022/04/09 01:55:19;;;;;;;7.60;2.17;;;3.50;99.90;;;;;;4997427;28;92192;-33
2022/04/09 01:57:46;;;;;;;8.63;2.42;;;3.50;99.90;;;;;;4997000;28;92897;-32
2022/04/09 02:00:12;;;;;;;3.38;1.90;;;3.40;99.90;;;;;;4996355;28;95870;-33
2022/04/09 02:02:38;;;;;;;8.10;2.47;;;3.50;99.90;;;;;;4996249;28;97898;-32
2022/04/09 02:05:06;;;;;;;3.50;2.20;;;3.50;99.90;;;;;;4996634;28;93519;-34
2022/04/09 02:07:31;;;;;;;4.05;2.00;;;3.40;99.90;;;;;;4996606;28;93056;-36
2022/04/09 02:09:57;;;;;;;5.30;2.47;;;3.40;99.90;;;;;;4996545;28;94625;-34
2022/04/09 02:12:22;;;;;;;4.97;3.08;;;3.50;99.90;;;;;;4996839;28;94489;-37
2022/04/09 02:14:48;;;;;;;6.28;2.10;;;3.50;99.90;;;;;;4997142;28;92217;-32
2022/04/09 02:17:14;;;;;;;3.22;1.85;;;3.50;99.90;;;;;;4996524;28;92286;-34
2022/04/09 02:19:40;;;;;;;13.43;2.42;;;3.60;99.90;;;;;;4996601;28;93898;-34
2022/04/09 02:22:06;;;;;;;6.93;2.08;;;3.60;99.90;;;;;;4996147;28;94259;-35
2022/04/09 02:24:31;;;;;;;11.05;2.53;;;3.60;99.90;;;;;;4996175;28;93483;-35
2022/04/09 02:26:57;;;;;;;6.00;2.17;;;3.50;99.90;;;;;;4996998;28;95049;-32
2022/04/09 02:29:23;;;;;;;6.45;2.08;;;3.40;99.90;;;;;;4996218;28;94486;-33
2022/04/09 02:31:49;;;;;;;4.68;2.55;;;3.30;99.90;;;;;;4995821;28;94595;-36
2022/04/09 02:34:15;;;;;;;9.65;2.80;;;3.30;99.90;;;;;;4996729;28;92143;-35
2022/04/09 02:36:40;;;;;;;5.40;2.75;;;3.30;99.90;;;;;;4996076;28;93375;-33
2022/04/09 02:39:06;;;;;;;5.95;2.60;;;3.30;99.90;;;;;;4995369;28;96457;-32
2022/04/09 02:41:32;;;;;;;5.57;2.47;;;3.30;99.90;;;;;;4996049;28;94517;-33
2022/04/09 02:43:58;;;;;;;4.53;2.20;;;3.30;99.90;;;;;;4996885;28;93041;-34
2022/04/09 02:46:24;;;;;;;8.23;2.67;;;3.30;99.90;;;;;;4996153;28;94523;-35
2022/04/09 02:48:50;;;;;;;3.85;2.22;;;3.30;99.90;;;;;;4996110;28;95694;-33
2022/04/09 02:51:16;;;;;;;5.63;2.22;;;3.30;99.90;;;;;;4996432;28;94426;-32
2022/04/09 02:53:42;;;;;;;9.73;2.72;;;3.30;99.90;;;;;;4995898;28;92985;-33
2022/04/09 02:56:07;;;;;;;6.25;2.80;;;3.30;99.90;;;;;;4996527;28;93589;-34
2022/04/09 02:58:33;;;;;;;8.63;2.28;;;3.30;99.90;;;;;;4995428;28;94712;-36
2022/04/09 03:00:59;;;;;;;6.43;2.65;;;3.30;99.90;;;;;;4995599;28;94435;-36
2022/04/09 03:03:24;;;;;;;9.80;2.58;;;3.20;99.90;;;;;;4996677;28;94528;-33
2022/04/09 03:05:50;;;;;;;6.57;2.83;;;3.30;99.90;;;;;;4995931;28;93021;-36
2022/04/09 03:08:15;;;;;;;9.70;3.40;;;3.20;99.90;;;;;;4996330;28;95291;-32
2022/04/09 03:10:41;;;;;;;7.97;1.90;;;3.20;99.90;;;;;;4995310;28;92995;-31
2022/04/09 03:13:07;;;;;;;5.75;3.20;;;3.10;99.90;;;;;;4998988;28;95370;-34
2022/04/09 03:15:32;;;;;;;9.15;3.38;;;3.10;99.90;;;;;;4999441;28;93852;-35
2022/04/09 03:17:58;;;;;;;8.93;2.28;;;3.10;99.90;;;;;;4998840;28;94541;-33
2022/04/09 03:20:24;;;;;;;7.03;2.50;;;3.10;99.90;;;;;;4999427;28;94669;-32
2022/04/09 03:22:50;;;;;;;9.98;2.63;;;3.10;99.90;;;;;;4999511;28;92308;-34
2022/04/09 03:25:16;;;;;;;7.85;2.60;;;3.10;99.90;;;;;;4999607;28;92839;-31
2022/04/09 03:27:42;;;;;;;7.35;2.92;;;3.10;99.90;;;;;;4998491;28;94241;-32
2022/04/09 03:30:08;;;;;;;9.90;3.08;;;3.10;99.90;;;;;;4999287;28;94350;-33
2022/04/09 03:32:38;;;;;;;8.65;2.67;;;3.00;99.90;;;;;;4999694;28;93388;-32
2022/04/09 03:35:06;;;;;;;5.75;2.55;;;3.00;99.90;;;;;;4999948;28;94110;-33
2022/04/09 03:37:35;;;;;;;5.30;2.95;;;3.00;99.90;;;;;;4998299;28;98578;-33
2022/04/09 03:40:05;;;;;;;6.72;2.83;;;2.90;99.90;;;;;;4998302;28;95601;-35
2022/04/09 03:42:31;;;;;;;8.40;2.38;;;3.00;99.90;;;;;;4999106;28;93816;-32
2022/04/09 03:44:57;;;;;;;3.17;2.30;;;3.00;99.90;;;;;;4998811;28;93215;-33
2022/04/09 03:47:23;;;;;;;6.35;3.45;;;3.00;99.90;;;;;;4998804;28;94564;-35
2022/04/09 03:49:49;;;;;;;5.53;2.97;;;3.00;99.90;;;;;;4998668;28;94699;-33
2022/04/09 03:52:14;;;;;;;7.07;3.28;;;3.00;99.90;;;;;;4999371;28;92626;-36
2022/04/09 03:54:40;;;;;;;10.90;2.60;;;2.90;99.90;;;;;;4999117;28;94019;-32
2022/04/09 03:57:06;;;;;;;15.70;3.35;;;2.80;99.90;;;;;;4999227;28;93304;-31
2022/04/09 03:59:32;;;;;;;8.50;2.90;;;2.80;99.90;;;;;;4999479;28;94426;-32
2022/04/09 04:01:57;;;;;;;6.60;2.47;;;2.90;99.90;;;;;;4998467;28;95379;-32
2022/04/09 04:04:23;;;;;;;7.53;2.70;;;2.90;99.90;;;;;;4999221;28;94224;-34
2022/04/09 04:06:49;;;;;;;5.22;2.35;;;2.90;99.90;;;;;;4997437;28;94803;-32
2022/04/09 04:09:17;;;;;;;11.95;2.95;;;2.90;99.90;;;;;;4998954;28;94425;-36
2022/04/09 04:11:44;;;;;;;11.02;3.13;;;2.90;99.90;;;;;;4999166;28;94068;-36
2022/04/09 04:14:10;;;;;;;7.75;2.33;;;3.00;99.90;;;;;;4998871;28;94263;-33
2022/04/09 04:16:35;;;;;;;7.30;2.08;;;3.00;99.90;;;;;;4997554;28;94412;-33
2022/04/09 04:19:01;;;;;;;6.25;2.85;;;3.10;99.90;;;;;;4999433;28;94221;-32
2022/04/09 04:21:27;;;;;;;5.50;2.75;;;3.10;99.90;;;;;;4998463;28;93503;-35
2022/04/09 04:23:53;;;;;;;6.88;2.42;;;3.10;99.90;;;;;;4997913;28;94843;-37
2022/04/09 04:26:19;;;;;;;7.85;2.28;;;3.10;99.90;;;;;;4997470;28;96083;-34
2022/04/09 04:28:48;;;;;;;8.02;2.88;;;3.00;99.90;;;;;;4997690;28;95606;-33
2022/04/09 04:31:18;;;;;;;5.13;2.40;;;3.10;99.90;;;;;;4998385;28;94772;-36
2022/04/09 04:33:43;;;;;;;4.22;2.25;;;3.10;99.90;;;;;;4998048;28;94414;-36
2022/04/09 04:36:09;;;;;;;3.92;2.13;;;3.10;99.90;;;;;;4998544;28;94803;-32
2022/04/09 04:38:35;;;;;;;6.93;2.22;;;3.00;99.90;;;;;;4997850;28;93642;-34
2022/04/09 04:41:02;;;;;;;5.55;2.47;;;3.10;99.90;;;;;;4998534;28;94482;-35
2022/04/09 04:43:27;;;;;;;5.60;2.22;;;3.00;99.90;;;;;;4998407;28;91893;-33
2022/04/09 04:45:53;;;;;;;3.47;1.80;;;3.00;99.90;;;;;;4997699;28;94733;-32
2022/04/09 04:48:20;;;;;;;7.70;1.77;;;3.00;99.90;;;;;;4998104;28;94498;-35
2022/04/09 04:50:46;;;;;;;5.72;2.25;;;3.00;99.90;;;;;;4997744;28;94913;-33
2022/04/09 04:53:12;;;;;;;5.15;1.95;;;3.10;99.90;;;;;;4998007;28;93861;-34
2022/04/09 04:55:38;;;;;;;4.35;1.63;;;3.00;99.90;;;;;;4997431;28;94998;-32
2022/04/09 04:58:03;;;;;;;9.57;2.05;;;3.10;99.90;;;;;;4997679;28;94850;-32
2022/04/09 05:00:29;;;;;;;5.70;2.42;;;3.10;99.90;;;;;;4998873;28;94229;-35
2022/04/09 05:02:55;;;;;;;8.93;2.17;;;3.00;99.90;;;;;;4997609;28;93544;-34
2022/04/09 05:05:21;;;;;;;4.95;1.50;;;3.10;99.90;;;;;;4997302;28;95072;-31
2022/04/09 05:07:49;;;;;;;6.53;2.58;;;3.20;99.90;;;;;;4997561;28;94564;-32
2022/04/09 05:10:23;;;;;;;3.13;2.10;;;3.30;99.90;;;;;;4997771;28;94224;-33
2022/04/09 05:12:49;;;;;;;3.55;1.95;;;3.30;99.90;;;;;;4998428;28;94755;-31
2022/04/09 05:15:16;;;;;;;5.63;2.03;;;3.40;99.90;;;;;;4997035;28;95782;-33
2022/04/09 05:17:42;;;;;;;9.77;2.22;;;3.30;99.90;;;;;;4996842;28;95409;-33
2022/04/09 05:20:11;;;;;;;5.60;1.92;;;3.40;99.90;;;;;;4998228;28;92783;-32
2022/04/09 05:22:38;;;;;;;4.97;2.00;;;3.50;99.90;;;;;;4997808;28;94907;-32
2022/04/09 05:25:05;;;;;;;11.48;2.08;;;3.50;99.90;;;;;;4997487;28;93351;-35
2022/04/09 05:27:31;;;;;;;7.13;2.08;;;3.60;99.90;;;;;;4996586;28;94343;-35
2022/04/09 05:29:57;;;;;;;4.05;2.28;;;3.60;99.90;;;;;;4997853;28;93275;-33
2022/04/09 05:32:23;;;;;;;4.30;1.98;;;3.60;99.90;;;;;;4997595;28;91410;-35
2022/04/09 05:34:49;;;;;;;6.18;2.22;;;3.60;99.90;;;;;;4996338;28;95119;-36
2022/04/09 05:37:16;;;;;;;6.25;2.65;;;3.50;99.90;;;;;;4996568;28;95546;-33
2022/04/09 05:39:43;;;;;;;4.00;1.92;;;3.60;99.90;;;;;;4996670;28;95622;-32
2022/04/09 05:42:11;;;;;;;10.52;2.83;;;3.60;99.90;;;;;;4997150;28;94275;-37
2022/04/09 05:44:37;;;;;;;11.50;3.10;;;3.70;99.90;;;;;;4996730;28;94720;-34
2022/04/09 05:47:03;;;;;;;9.18;2.30;;;3.70;99.90;;;;;;4996930;28;94928;-32
2022/04/09 05:49:28;;;;;;;7.85;2.55;;;3.70;99.90;;;;;;4997683;28;93977;-32
2022/04/09 05:51:54;;;;;;;5.70;2.55;;;3.70;99.90;;;;;;4996703;28;93337;-34
2022/04/09 05:54:19;;;;;;;5.43;2.45;;;3.70;99.90;;;;;;4996326;28;95128;-37
2022/04/09 05:56:45;;;;;;;6.70;2.42;;;3.70;99.90;;;;;;4997290;28;94563;-31
2022/04/09 05:59:11;;;;;;;8.93;2.42;;;3.80;99.90;;;;;;4997383;28;94331;-34
2022/04/09 06:01:36;;;;;;;7.00;2.38;;;3.90;99.90;;;;;;4996950;28;94270;-32
2022/04/09 06:04:02;;;;;;;8.48;2.67;;;3.90;99.90;;;;;;4997080;28;95636;-31
2022/04/09 06:06:28;;;;;;;11.70;3.28;;;3.90;99.90;;;;;;4996478;28;95280;-33
2022/04/09 06:08:54;;;;;;;3.67;2.78;;;3.90;99.90;;;;;;4997842;28;93584;-32
2022/04/09 06:11:20;;;;;;;6.57;2.88;;;4.00;99.90;;;;;;4996525;28;92954;-32
2022/04/09 06:13:46;;;;;;;8.18;2.90;;;4.10;99.90;;;;;;4996296;28;94811;-33
2022/04/09 06:16:11;;;;;;;8.75;3.08;;;4.20;99.90;;;;;;4996318;28;95766;-32
2022/04/09 06:18:38;;;;;;;5.47;2.22;;;4.20;99.90;;;;;;4997059;28;93535;-33
2022/04/09 06:21:07;;;;;;;11.80;3.47;;;4.40;99.90;;;;;;4997145;28;92710;-36
2022/04/09 06:23:33;;;;;;;6.95;2.40;;;4.50;99.90;;;;;;4996931;28;94934;-33
2022/04/09 06:25:58;;;;;;;11.23;2.95;;;4.60;99.90;;;;;;4995442;28;94528;-34
2022/04/09 06:28:24;;;;;;;5.93;2.50;;;4.80;99.90;;;;;;4996944;28;95464;-37
2022/04/09 06:30:50;;;;;;;7.35;2.45;;;4.80;99.90;;;;;;4996979;28;94218;-35
2022/04/09 06:33:16;;;;;;;8.50;2.40;;;5.10;99.90;;;;;;4996185;28;94943;-32
2022/04/09 06:35:42;;;;;;;5.05;2.90;;;5.20;99.90;;;;;;4996594;28;94394;-34
2022/04/09 06:38:07;;;;;;;4.72;2.42;;;5.30;99.90;;;;;;4996603;28;92203;-34
2022/04/09 06:40:33;;;;;;;6.70;2.33;;;5.40;99.90;;;;;;4996900;28;94916;-35
2022/04/09 06:42:59;;;;;;;5.25;2.58;;;5.50;99.90;;;;;;4995833;28;100978;-32
2022/04/09 06:45:24;;;;;;;7.32;1.85;;;5.70;99.90;;;;;;4996630;28;94633;-37
2022/04/09 06:47:51;;;;;;;6.93;2.85;;;5.80;99.90;;;;;;4998225;28;94988;-33
2022/04/09 06:50:17;;;;;;;7.43;2.38;;;5.90;99.90;;;;;;5000043;28;93192;-32
2022/04/09 06:52:43;;;;;;;7.93;2.55;;;6.10;99.90;;;;;;4999049;28;95585;-36
2022/04/09 06:55:10;;;;;;;4.63;2.53;;;6.30;99.90;;;;;;5000392;28;97139;-34
2022/04/09 06:57:41;;;;;;;11.68;2.25;;;6.40;99.90;;;;;;4981672;28;93980;-35
2022/04/09 07:00:11;;;;;;;5.60;2.30;;;6.60;99.90;;;;;;4999908;28;93316;-35
2022/04/09 07:02:37;;;;;;;6.70;2.55;;;6.70;99.90;;;;;;4999002;28;96318;-33
2022/04/09 07:05:02;;;;;;;8.00;3.35;;;6.90;99.90;;;;;;4999377;28;94459;-33
2022/04/09 07:07:28;;;;;;;8.95;3.03;;;7.00;99.90;;;;;;5000424;28;92177;-33
2022/04/09 07:10:09;;;;;;;12.30;2.88;;;7.30;99.90;;;;;;4999709;28;93528;-33
2022/04/09 07:12:35;;;;;;;8.20;2.60;;;7.50;99.90;;;;;;4998678;28;96194;-35
2022/04/09 07:15:02;;;;;;;10.07;3.78;;;7.90;99.90;;;;;;4999580;28;94376;-36
2022/04/09 07:17:29;;;;;;;10.77;2.97;;;8.10;99.90;;;;;;4999525;28;94059;-33
2022/04/09 07:20:03;;;;;;;14.80;3.20;;;8.30;99.90;;;;;;4999243;28;93958;-36
2022/04/09 07:22:29;;;;;;;9.65;2.78;;;8.10;99.90;;;;;;4999094;28;94765;-33
2022/04/09 07:24:55;;;;;;;4.95;2.30;;;7.50;99.90;;;;;;4998246;28;96148;-34
2022/04/09 07:27:21;;;;;;;5.13;2.00;;;7.20;99.90;;;;;;4999292;28;94566;-32
2022/04/09 07:29:47;;;;;;;5.60;2.50;;;7.20;99.90;;;;;;4999576;28;92581;-33
2022/04/09 07:32:13;;;;;;;6.95;2.55;;;7.50;99.90;;;;;;4998434;28;94849;-32
2022/04/09 07:34:38;;;;;;;11.95;2.75;;;7.60;99.90;;;;;;4999485;28;101481;-33
2022/04/09 07:37:04;;;;;;;6.88;2.40;;;7.80;99.90;;;;;;4999604;28;92218;-31
2022/04/09 07:39:30;;;;;;;8.52;1.67;;;8.30;99.90;;;;;;4998824;28;92124;-32
2022/04/09 07:41:56;;;;;;;7.60;2.50;;;8.50;99.90;;;;;;4998711;28;96303;-35
2022/04/09 07:44:22;;;;;;;9.27;2.78;;;8.80;99.90;;;;;;4999341;28;94588;-33
2022/04/09 07:46:49;;;;;;;10.73;2.72;;;8.80;99.90;;;;;;4999283;28;93723;-33
2022/04/09 07:49:14;;;;;;;7.88;2.13;;;8.90;99.90;;;;;;4999159;28;94627;-32
2022/04/09 07:51:40;;;;;;;6.07;2.22;;;9.00;99.90;;;;;;4998168;28;94601;-32
2022/04/09 07:54:06;;;;;;;5.38;2.03;;;9.10;99.90;;;;;;4999266;28;94378;-35
2022/04/09 07:56:32;;;;;;;6.80;2.78;;;9.40;99.90;;;;;;4998956;28;92592;-31
2022/04/09 07:58:57;;;;;;;6.82;2.80;;;9.40;99.90;;;;;;4978523;28;93861;-33
2022/04/09 08:01:23;;;;;;;3.95;2.03;;;9.70;99.90;;;;;;4996606;28;98279;-34
2022/04/09 08:03:49;;;;;;;4.38;2.42;;;9.40;99.90;;;;;;4995957;28;93812;-34
2022/04/09 08:06:15;;;;;;;4.13;2.13;;;9.70;99.90;;;;;;4997035;28;94455;-35
2022/04/09 08:08:41;;;;;;;6.05;2.40;;;10.10;99.90;;;;;;4996358;28;93175;-34
2022/04/09 08:11:06;;;;;;;11.35;2.28;;;9.90;99.90;;;;;;4996323;28;94867;-35
2022/04/09 08:13:33;;;;;;;5.03;2.05;;;9.90;99.90;;;;;;4996482;28;95269;-33
2022/04/09 08:15:59;;;;;;;7.32;2.53;;;10.10;99.90;;;;;;4996430;28;93705;-36
2022/04/09 08:18:25;;;;;;;6.05;2.28;;;10.60;99.90;;;;;;4996894;28;92331;-34
2022/04/09 08:20:51;;;;;;;5.78;2.25;;;10.60;99.90;;;;;;4996519;28;96428;-33
2022/04/09 08:23:16;;;;;;;10.15;3.05;;;10.70;99.90;;;;;;4996598;28;94462;-34
2022/04/09 08:25:42;;;;;;;5.88;1.80;;;10.80;99.90;;;;;;4996804;28;93188;-33
2022/04/09 08:28:07;;;;;;;3.53;1.90;;;10.70;99.90;;;;;;4994245;28;92229;-34
2022/04/09 08:30:33;;;;;;;9.75;2.10;;;9.70;99.90;;;;;;4996330;28;97843;-34
2022/04/09 08:33:03;;;;;;;5.45;1.85;;;10.00;99.90;;;;;;4995617;28;96547;-34
2022/04/09 08:35:28;;;;;;;3.85;1.65;;;10.40;99.90;;;;;;4996307;28;93809;-32
2022/04/09 08:37:55;;;;;;;4.78;1.77;;;10.40;99.90;;;;;;4996035;28;94154;-33
2022/04/09 08:40:22;;;;;;;4.43;2.25;;;10.30;99.90;;;;;;4996722;28;94180;-32
2022/04/09 08:42:48;;;;;;;4.88;1.73;;;10.30;99.90;;;;;;4995181;28;95217;-34
2022/04/09 08:45:15;;;;;;;9.45;2.17;;;10.30;99.90;;;;;;4996779;28;93739;-33
2022/04/09 08:47:44;;;;;;;3.25;1.70;;;9.80;99.90;;;;;;4995683;28;92146;-37
2022/04/09 08:50:12;;;;;;;6.38;2.00;;;9.90;99.90;;;;;;4995029;28;94593;-32
2022/04/09 08:52:41;;;;;;;6.88;1.73;;;9.80;99.90;;;;;;4995580;28;95955;-33
2022/04/09 08:55:07;;;;;;;2.58;1.52;;;10.00;99.90;;;;;;4996402;28;93751;-33
2022/04/09 08:57:35;;;;;;;9.07;2.40;;;9.60;99.90;;;;;;4995724;28;95612;-34
2022/04/09 09:00:17;;;;;;;5.57;2.17;;;10.30;99.90;;;;;;4995688;28;95091;-33
2022/04/09 09:02:54;;;;;;;10.30;2.22;;;10.00;99.90;;;;;;4995071;28;94511;-35
2022/04/09 09:05:40;;;;;;;4.50;2.28;;;10.50;99.90;;;;;;4996471;28;92697;-34
2022/04/09 09:08:08;;;;;;;7.60;2.00;;;10.10;99.90;;;;;;4996179;28;93379;-37
2022/04/09 09:10:35;;;;;;;4.43;2.43;;;10.50;99.90;;;;;;4995704;28;94776;-34
2022/04/09 09:13:11;;;;;;;9.93;2.13;;;10.80;99.90;;;;;;4995491;28;93488;-32
2022/04/09 09:15:47;;;;;;;2.90;2.00;;;10.50;96.10;;;;;;4996451;28;92787;-36
2022/04/09 09:18:27;;;;;;;6.07;2.22;;;10.20;99.90;;;;;;4996521;28;93738;-36
2022/04/09 09:20:53;;;;;;;3.47;2.05;;;10.50;99.90;;;;;;4995766;28;94411;-33
2022/04/09 09:23:24;;;;;;;2.80;1.67;;;10.30;99.90;;;;;;4994802;28;95120;-34
2022/04/09 09:25:51;;;;;;;6.32;1.92;;;10.30;99.90;;;;;;4994841;28;92555;-34
2022/04/09 09:28:34;;;;;;;8.50;1.98;;;9.80;99.90;;;;;;4995615;28;94151;-31
2022/04/09 09:31:00;;;;;;;7.28;2.33;;;10.10;99.90;;;;;;4996003;28;95420;-33
2022/04/09 09:33:27;;;;;;;4.75;1.77;;;10.30;99.90;;;;;;4995342;28;94606;-37
2022/04/09 09:35:54;;;;;;;4.20;1.92;;;10.80;99.90;;;;;;4995507;28;93244;-33
2022/04/09 09:38:20;;;;;;;3.10;1.80;;;11.10;99.90;;;;;;4996021;28;93386;-33
2022/04/09 09:40:47;;;;;;;5.20;1.95;;;10.90;99.90;;;;;;4994843;28;94631;-33
2022/04/09 09:43:14;;;;;;;6.35;2.20;;;11.60;99.90;;;;;;4995804;28;95236;-33
2022/04/09 09:45:41;;;;;;;10.20;2.20;;;11.10;93.20;;;;;;4994913;28;94446;-35
2022/04/09 09:48:25;;;;;;;4.20;1.70;;;11.70;92.20;;;;;;4994886;28;93284;-33
2022/04/09 09:50:52;;;;;;;3.60;1.75;;;11.20;99.90;;;;;;4994963;28;93408;-35
2022/04/09 09:53:39;;;;;;;2.00;1.47;;;10.60;99.90;;;;;;4995334;28;94460;-32
2022/04/09 09:56:05;;;;;;;2.35;1.00;;;9.30;99.90;;;;;;4996324;28;93247;-32
2022/04/09 09:58:32;;;;;;;3.40;0.98;;;8.90;99.90;;;;;;4994385;28;94631;-34
2022/04/09 10:00:58;;;;;;;2.47;1.05;;;8.80;99.90;;;;;;4995385;28;95237;-33
2022/04/09 10:03:25;;;;;;;5.57;1.65;;;9.60;99.90;;;;;;4995310;28;96461;-33
2022/04/09 10:05:52;;;;;;;1.75;1.55;;;10.20;99.90;;;;;;4994441;28;93406;-35
2022/04/09 10:08:19;;;;;;;5.15;2.10;;;11.20;99.90;;;;;;4995194;28;93511;-37
2022/04/09 10:10:48;;;;;;;6.80;1.90;;;11.10;99.90;;;;;;4994786;28;95788;-33
2022/04/09 10:13:23;;;;;;;4.95;1.80;;;10.40;99.90;;;;;;4995300;28;95350;-32
2022/04/09 10:15:51;;;;;;;5.47;1.48;;;9.90;99.90;;;;;;4994423;28;94471;-33
2022/04/09 10:18:23;;;;;;;1.77;1.00;;;9.40;99.90;;;;;;4994711;28;94653;-36
2022/04/09 10:21:00;;;;;;;4.47;1.27;;;9.20;99.90;;;;;;4993995;28;94757;-34
2022/04/09 10:23:32;;;;;;;3.13;1.25;;;8.90;99.90;;;;;;4994043;28;94608;-36
2022/04/09 10:26:01;;;;;;;4.07;1.10;;;9.30;99.90;;;;;;4994091;28;93219;-33
2022/04/09 10:28:38;;;;;;;7.28;2.40;;;9.70;99.90;;;;;;4994576;28;92285;-35
2022/04/09 10:31:22;;;;;;;8.70;1.67;;;9.70;99.90;;;;;;4994816;28;94652;-33
2022/04/09 10:34:01;;;;;;;4.65;1.20;;;9.30;99.90;;;;;;4993974;28;95569;-34
2022/04/09 10:36:45;;;;;;;2.03;1.30;;;9.80;99.90;;;;;;4994464;28;93153;-34
2022/04/09 10:39:25;;;;;;;4.97;1.90;;;10.40;99.90;;;;;;4993657;28;92692;-35
2022/04/09 10:41:54;;;;;;;7.32;2.20;;;11.00;99.90;;;;;;4994435;28;94953;-35
2022/04/09 10:44:36;;;;;;;10.07;1.70;;;11.20;95.40;;;;;;4994001;28;94474;-33
2022/04/09 10:47:04;;;;;;;9.45;2.50;;;11.50;99.90;;;;;;4994789;28;94711;-35
2022/04/09 10:49:30;;;;;;;5.50;1.80;;;10.90;99.90;;;;;;4994569;28;93529;-35
2022/04/09 10:52:04;;;;;;;7.10;2.00;;;10.50;99.90;;;;;;4994189;28;94829;-32
2022/04/09 10:54:29;;;;;;;7.43;2.40;;;9.70;99.90;;;;;;4993837;28;95417;-33
2022/04/09 10:57:06;;;;;;;6.45;1.95;;;9.50;99.90;;;;;;4993827;28;93081;-36
2022/04/09 10:59:33;;;;;;;6.70;1.98;;;9.80;99.90;;;;;;4994419;28;92761;-33
2022/04/09 11:01:59;;;;;;;4.22;1.73;;;10.00;99.90;;;;;;4993597;28;95737;-36
2022/04/09 11:04:36;;;;;;;4.63;1.58;;;9.60;99.90;;;;;;4993751;28;95428;-37
2022/04/09 11:07:06;;;;;;;7.38;2.05;;;9.80;99.90;;;;;;4994570;28;93142;-37
2022/04/09 11:09:51;;;;;;;3.53;1.77;;;10.10;99.90;;;;;;4994541;28;93473;-37
2022/04/09 11:12:26;;;;;;;6.53;1.35;;;10.00;99.90;;;;;;4993712;28;94195;-34
2022/04/09 11:15:00;;;;;;;10.75;7.63;;;9.70;99.90;;;;;;4993117;28;94525;-35
2022/04/09 11:17:35;;;;;;;4.43;1.48;;;9.40;99.90;;;;;;4994632;28;94468;-33
2022/04/09 11:20:03;;;;;;;3.67;1.60;;;9.20;99.90;;;;;;4993695;28;93893;-33
2022/04/09 11:22:37;;;;;;;6.50;1.95;;;8.90;99.90;;;;;;4994262;28;94668;-33
2022/04/09 11:25:08;;;;;;;2.92;1.60;;;8.80;99.90;;;;;;4992794;28;95635;-35
2022/04/09 11:27:34;;;;;;;3.80;1.15;;;8.80;99.90;;;;;;4993324;28;94881;-34
2022/04/09 11:30:01;;;;;;;4.55;1.42;;;8.70;99.90;;;;;;4993561;28;93599;-32
2022/04/09 11:32:28;;;;;;;9.45;1.83;;;8.50;99.90;;;;;;4993739;28;94695;-35
2022/04/09 11:34:55;;;;;;;2.88;1.00;;;8.50;99.90;;;;;;4996901;28;94289;-35
2022/04/09 11:37:23;;;;;;;5.78;1.70;;;8.40;99.90;;;;;;4995703;28;93468;-34
2022/04/09 11:39:50;;;;;;;4.13;1.27;;;8.50;99.90;;;;;;4995959;28;94065;-34
2022/04/09 11:42:17;;;;;;;4.68;1.42;;;8.80;99.90;;;;;;4996532;28;94762;-34
2022/04/09 11:44:43;;;;;;;6.05;2.20;;;9.40;99.90;;;;;;4997120;28;94697;-37
2022/04/09 11:47:11;;;;;;;2.78;1.55;;;9.70;99.90;;;;;;4996318;28;94111;-33
2022/04/09 11:49:37;;;;;;;;;;;9.90;99.90;;;;;;4996319;28;92879;-34
2022/04/09 11:52:06;;;;;;;6.55;2.00;;;10.00;99.90;;;;;;4997446;28;95627;-35
2022/04/09 11:54:36;;;;;;;6.90;1.98;;;10.60;99.90;;;;;;4996427;28;95394;-32
2022/04/09 11:57:03;;;;;;;5.20;2.30;;;10.80;99.90;;;;;;4996675;28;94713;-35
2022/04/09 11:59:29;;;;;;;7.47;2.08;;;11.10;99.90;;;;;;4996744;28;92063;-34
2022/04/09 12:01:56;;;;;;;3.45;1.42;;;10.60;99.90;;;;;;4995442;28;94647;-37
2022/04/09 12:04:25;;;;;;;4.75;2.25;;;10.10;99.90;;;;;;4996431;28;95294;-32
2022/04/09 12:06:51;;;;;;;5.57;1.48;;;9.90;99.90;;;;;;4996751;28;94555;-32
2022/04/09 12:09:17;;;;;;;6.70;2.75;;;9.50;99.90;;;;;;4996697;28;91916;-34
2022/04/09 12:11:43;;;;;;;10.40;3.85;;;9.80;99.90;;;;;;4996011;28;95372;-35
2022/04/09 12:14:11;;;;;;;7.80;2.65;;;9.90;99.90;;;;;;4996220;28;93529;-34
2022/04/09 12:16:41;;;;;;;4.82;2.00;;;9.80;99.90;;;;;;4994442;28;94197;-37
2022/04/09 12:19:07;;;;;;;6.68;2.75;;;9.80;99.90;;;;;;4996273;28;94607;-36
2022/04/09 12:21:35;;;;;;;5.15;1.55;;;9.90;99.90;;;;;;4995714;28;95257;-34
2022/04/09 12:24:01;;;;;;;5.60;1.90;;;10.00;99.90;;;;;;4998869;28;93924;-33
2022/04/09 12:26:27;;;;;;;4.72;1.80;;;9.80;99.90;;;;;;5011612;22;95797;-33
2022/04/09 12:29:22;;;;;;;2.78;1.67;;;10.20;99.90;;;;;;4975213;28;93841;-36
2022/04/09 12:32:09;;;;;;;3.97;2.08;;;10.20;99.90;;;;;;4975280;28;94474;-35
2022/04/09 12:34:51;;;;;;;5.43;2.00;;;10.00;99.90;;;;;;4975488;28;94653;-35
2022/04/09 12:37:17;;;;;;;7.68;2.20;;;9.90;99.90;;;;;;4975508;28;93031;-34
2022/04/09 12:39:44;;;;;;;3.90;1.70;;;9.70;99.90;;;;;;4976361;28;93649;-36
2022/04/09 12:42:10;;;;;;;5.07;1.73;;;9.90;99.90;;;;;;4975049;28;95595;-34
2022/04/09 12:44:36;;;;;;;4.55;2.10;;;10.20;99.90;;;;;;4974698;28;95284;-37
2022/04/09 12:47:04;;;;;;;2.67;1.52;;;10.70;99.90;;;;;;4975823;28;93480;-34
2022/04/09 12:49:32;;;;;;;11.00;1.85;;;10.40;99.90;;;;;;4975728;28;93912;-33
2022/04/09 12:51:58;;;;;;;;;;;10.20;99.90;;;;;;4975446;28;95435;-34
2022/04/09 12:54:24;;;;;;;2.17;0.73;;;10.00;99.90;;;;;;4977166;28;93594;-32
2022/04/09 12:56:50;;;;;;;2.50;1.27;;;9.60;99.90;;;;;;4975022;28;93152;-33